sensor_id;sensor_type;location;lat;lon;timestamp;P1;durP1;ratioP1;P2;durP2;ratioP2
43835;SDS011;39345;43.964;25.340;2022-09-17T00:00:24;20.38;;;8.55;;
43835;SDS011;39345;43.964;25.340;2022-09-17T00:02:52;8.20;;;2.80;;
43835;SDS011;39345;43.964;25.340;2022-09-17T00:05:21;9.32;;;2.90;;
43835;SDS011;39345;43.964;25.340;2022-09-17T00:07:50;7.13;;;3.45;;
43835;SDS011;39345;43.964;25.340;2022-09-17T00:10:18;12.60;;;5.88;;
43835;SDS011;39345;43.964;25.340;2022-09-17T00:12:46;11.80;;;3.70;;
43835;SDS011;39345;43.964;25.340;2022-09-17T00:15:14;12.10;;;4.25;;
43835;SDS011;39345;43.964;25.340;2022-09-17T00:17:42;7.45;;;4.00;;
43835;SDS011;39345;43.964;25.340;2022-09-17T00:20:09;8.90;;;4.35;;
43835;SDS011;39345;43.964;25.340;2022-09-17T00:22:37;9.75;;;3.97;;
43835;SDS011;39345;43.964;25.340;2022-09-17T00:25:05;9.27;;;5.10;;
43835;SDS011;39345;43.964;25.340;2022-09-17T00:27:33;6.88;;;4.05;;
43835;SDS011;39345;43.964;25.340;2022-09-17T00:30:01;19.27;;;8.95;;
43835;SDS011;39345;43.964;25.340;2022-09-17T00:32:28;22.42;;;12.98;;
43835;SDS011;39345;43.964;25.340;2022-09-17T00:34:56;25.48;;;14.32;;
43835;SDS011;39345;43.964;25.340;2022-09-17T00:37:24;30.85;;;16.95;;
43835;SDS011;39345;43.964;25.340;2022-09-17T00:39:51;7.85;;;3.78;;
43835;SDS011;39345;43.964;25.340;2022-09-17T00:42:19;23.95;;;13.85;;
43835;SDS011;39345;43.964;25.340;2022-09-17T00:44:51;23.08;;;11.93;;
43835;SDS011;39345;43.964;25.340;2022-09-17T00:47:21;21.70;;;10.23;;
43835;SDS011;39345;43.964;25.340;2022-09-17T00:49:51;11.32;;;5.60;;
43835;SDS011;39345;43.964;25.340;2022-09-17T00:52:21;25.10;;;10.43;;
43835;SDS011;39345;43.964;25.340;2022-09-17T00:54:55;16.83;;;7.63;;
43835;SDS011;39345;43.964;25.340;2022-09-17T00:57:24;24.27;;;9.32;;
43835;SDS011;39345;43.964;25.340;2022-09-17T00:59:52;20.65;;;7.80;;
43835;SDS011;39345;43.964;25.340;2022-09-17T01:02:20;23.23;;;10.00;;
43835;SDS011;39345;43.964;25.340;2022-09-17T01:04:47;13.02;;;6.00;;
43835;SDS011;39345;43.964;25.340;2022-09-17T01:15:45;41.72;;;32.03;;
43835;SDS011;39345;43.964;25.340;2022-09-17T01:18:24;17.27;;;12.57;;
43835;SDS011;39345;43.964;25.340;2022-09-17T01:31:17;16.20;;;8.38;;
43835;SDS011;39345;43.964;25.340;2022-09-17T01:33:55;12.52;;;6.53;;
43835;SDS011;39345;43.964;25.340;2022-09-17T01:36:32;23.88;;;17.13;;
43835;SDS011;39345;43.964;25.340;2022-09-17T01:41:50;14.80;;;9.48;;
43835;SDS011;39345;43.964;25.340;2022-09-17T01:44:26;9.10;;;5.15;;
43835;SDS011;39345;43.964;25.340;2022-09-17T01:46:56;16.10;;;11.52;;
43835;SDS011;39345;43.964;25.340;2022-09-17T01:49:27;18.70;;;13.75;;
43835;SDS011;39345;43.964;25.340;2022-09-17T01:51:57;12.82;;;8.32;;
43835;SDS011;39345;43.964;25.340;2022-09-17T01:54:26;17.70;;;10.52;;
43835;SDS011;39345;43.964;25.340;2022-09-17T01:59:56;12.30;;;7.38;;
43835;SDS011;39345;43.964;25.340;2022-09-17T02:02:31;9.07;;;3.57;;
43835;SDS011;39345;43.964;25.340;2022-09-17T02:07:54;35.70;;;24.85;;
43835;SDS011;39345;43.964;25.340;2022-09-17T02:10:29;50.72;;;39.55;;
43835;SDS011;39345;43.964;25.340;2022-09-17T02:13:01;38.42;;;28.90;;
43835;SDS011;39345;43.964;25.340;2022-09-17T02:15:35;31.75;;;22.48;;
43835;SDS011;39345;43.964;25.340;2022-09-17T02:20:44;17.08;;;12.25;;
43835;SDS011;39345;43.964;25.340;2022-09-17T02:23:15;11.75;;;5.20;;
43835;SDS011;39345;43.964;25.340;2022-09-17T02:25:49;7.07;;;3.33;;
43835;SDS011;39345;43.964;25.340;2022-09-17T02:30:52;20.73;;;14.20;;
43835;SDS011;39345;43.964;25.340;2022-09-17T02:33:20;15.10;;;10.65;;
43835;SDS011;39345;43.964;25.340;2022-09-17T02:35:48;8.10;;;4.38;;
43835;SDS011;39345;43.964;25.340;2022-09-17T02:38:25;9.45;;;6.35;;
43835;SDS011;39345;43.964;25.340;2022-09-17T02:40:56;11.50;;;5.63;;
43835;SDS011;39345;43.964;25.340;2022-09-17T02:43:37;15.68;;;9.07;;
43835;SDS011;39345;43.964;25.340;2022-09-17T02:48:43;5.22;;;2.97;;
43835;SDS011;39345;43.964;25.340;2022-09-17T02:59:00;6.22;;;2.30;;
43835;SDS011;39345;43.964;25.340;2022-09-17T03:01:32;5.43;;;2.10;;
43835;SDS011;39345;43.964;25.340;2022-09-17T03:04:03;6.30;;;2.30;;
43835;SDS011;39345;43.964;25.340;2022-09-17T03:06:32;6.97;;;2.40;;
43835;SDS011;39345;43.964;25.340;2022-09-17T03:08:59;8.23;;;3.55;;
43835;SDS011;39345;43.964;25.340;2022-09-17T03:11:27;7.05;;;2.50;;
43835;SDS011;39345;43.964;25.340;2022-09-17T03:13:54;6.22;;;3.17;;
43835;SDS011;39345;43.964;25.340;2022-09-17T03:16:24;7.00;;;3.00;;
43835;SDS011;39345;43.964;25.340;2022-09-17T03:18:51;11.75;;;4.32;;
43835;SDS011;39345;43.964;25.340;2022-09-17T03:21:19;7.15;;;3.60;;
43835;SDS011;39345;43.964;25.340;2022-09-17T03:23:46;3.92;;;2.40;;
43835;SDS011;39345;43.964;25.340;2022-09-17T03:26:14;5.50;;;2.00;;
43835;SDS011;39345;43.964;25.340;2022-09-17T03:28:41;8.15;;;3.70;;
43835;SDS011;39345;43.964;25.340;2022-09-17T03:31:09;4.68;;;2.20;;
43835;SDS011;39345;43.964;25.340;2022-09-17T03:33:36;5.55;;;2.20;;
43835;SDS011;39345;43.964;25.340;2022-09-17T03:36:04;4.32;;;1.98;;
43835;SDS011;39345;43.964;25.340;2022-09-17T03:38:32;5.65;;;2.20;;
43835;SDS011;39345;43.964;25.340;2022-09-17T03:41:03;7.97;;;2.80;;
43835;SDS011;39345;43.964;25.340;2022-09-17T03:43:32;5.90;;;2.72;;
43835;SDS011;39345;43.964;25.340;2022-09-17T03:46:00;6.15;;;2.72;;
43835;SDS011;39345;43.964;25.340;2022-09-17T03:48:27;5.30;;;2.28;;
43835;SDS011;39345;43.964;25.340;2022-09-17T03:50:55;6.10;;;3.00;;
43835;SDS011;39345;43.964;25.340;2022-09-17T03:53:23;4.28;;;2.05;;
43835;SDS011;39345;43.964;25.340;2022-09-17T03:55:50;5.15;;;2.30;;
43835;SDS011;39345;43.964;25.340;2022-09-17T03:58:18;7.38;;;2.55;;
43835;SDS011;39345;43.964;25.340;2022-09-17T04:00:46;5.72;;;2.90;;
43835;SDS011;39345;43.964;25.340;2022-09-17T04:03:18;7.82;;;3.40;;
43835;SDS011;39345;43.964;25.340;2022-09-17T04:05:46;7.88;;;3.38;;
43835;SDS011;39345;43.964;25.340;2022-09-17T04:08:17;11.23;;;2.97;;
43835;SDS011;39345;43.964;25.340;2022-09-17T04:10:44;8.02;;;3.00;;
43835;SDS011;39345;43.964;25.340;2022-09-17T04:13:12;10.20;;;3.00;;
43835;SDS011;39345;43.964;25.340;2022-09-17T04:15:40;6.25;;;3.28;;
43835;SDS011;39345;43.964;25.340;2022-09-17T04:18:08;8.25;;;3.50;;
43835;SDS011;39345;43.964;25.340;2022-09-17T04:20:36;8.15;;;3.55;;
43835;SDS011;39345;43.964;25.340;2022-09-17T04:23:03;8.88;;;3.78;;
43835;SDS011;39345;43.964;25.340;2022-09-17T04:25:32;5.30;;;2.90;;
43835;SDS011;39345;43.964;25.340;2022-09-17T04:28:00;7.50;;;2.90;;
43835;SDS011;39345;43.964;25.340;2022-09-17T04:30:27;7.85;;;3.03;;
43835;SDS011;39345;43.964;25.340;2022-09-17T04:32:55;7.40;;;3.55;;
43835;SDS011;39345;43.964;25.340;2022-09-17T04:35:22;13.75;;;3.15;;
43835;SDS011;39345;43.964;25.340;2022-09-17T04:37:51;6.35;;;3.03;;
43835;SDS011;39345;43.964;25.340;2022-09-17T04:40:19;6.97;;;3.83;;
43835;SDS011;39345;43.964;25.340;2022-09-17T04:42:46;10.50;;;3.40;;
43835;SDS011;39345;43.964;25.340;2022-09-17T04:45:14;9.07;;;2.88;;
43835;SDS011;39345;43.964;25.340;2022-09-17T04:47:42;9.07;;;3.55;;
43835;SDS011;39345;43.964;25.340;2022-09-17T04:50:09;9.68;;;4.13;;
43835;SDS011;39345;43.964;25.340;2022-09-17T04:52:40;5.28;;;2.78;;
43835;SDS011;39345;43.964;25.340;2022-09-17T04:55:08;6.57;;;2.97;;
43835;SDS011;39345;43.964;25.340;2022-09-17T04:57:36;6.25;;;3.13;;
43835;SDS011;39345;43.964;25.340;2022-09-17T05:00:04;8.90;;;2.78;;
43835;SDS011;39345;43.964;25.340;2022-09-17T05:02:35;6.15;;;3.17;;
43835;SDS011;39345;43.964;25.340;2022-09-17T05:05:03;7.93;;;3.30;;
43835;SDS011;39345;43.964;25.340;2022-09-17T05:07:30;9.63;;;2.55;;
43835;SDS011;39345;43.964;25.340;2022-09-17T05:09:58;8.57;;;2.63;;
43835;SDS011;39345;43.964;25.340;2022-09-17T05:12:25;12.90;;;5.22;;
43835;SDS011;39345;43.964;25.340;2022-09-17T05:14:59;8.35;;;3.17;;
43835;SDS011;39345;43.964;25.340;2022-09-17T05:17:27;9.15;;;3.25;;
43835;SDS011;39345;43.964;25.340;2022-09-17T05:19:54;6.43;;;2.45;;
43835;SDS011;39345;43.964;25.340;2022-09-17T05:22:22;7.55;;;2.97;;
43835;SDS011;39345;43.964;25.340;2022-09-17T05:24:49;5.47;;;2.50;;
43835;SDS011;39345;43.964;25.340;2022-09-17T05:27:17;5.97;;;2.95;;
43835;SDS011;39345;43.964;25.340;2022-09-17T05:29:44;7.78;;;2.60;;
43835;SDS011;39345;43.964;25.340;2022-09-17T05:32:12;5.82;;;2.78;;
43835;SDS011;39345;43.964;25.340;2022-09-17T05:34:39;9.02;;;3.88;;
43835;SDS011;39345;43.964;25.340;2022-09-17T05:37:09;7.57;;;2.95;;
43835;SDS011;39345;43.964;25.340;2022-09-17T05:39:37;4.65;;;2.53;;
43835;SDS011;39345;43.964;25.340;2022-09-17T05:42:05;7.50;;;3.63;;
43835;SDS011;39345;43.964;25.340;2022-09-17T05:44:32;9.88;;;3.30;;
43835;SDS011;39345;43.964;25.340;2022-09-17T05:47:00;5.75;;;2.70;;
43835;SDS011;39345;43.964;25.340;2022-09-17T05:49:27;7.00;;;2.80;;
43835;SDS011;39345;43.964;25.340;2022-09-17T05:51:55;9.25;;;2.92;;
43835;SDS011;39345;43.964;25.340;2022-09-17T05:54:22;8.93;;;3.40;;
43835;SDS011;39345;43.964;25.340;2022-09-17T05:56:53;8.27;;;3.60;;
43835;SDS011;39345;43.964;25.340;2022-09-17T05:59:20;11.00;;;3.03;;
43835;SDS011;39345;43.964;25.340;2022-09-17T06:01:48;6.25;;;3.25;;
43835;SDS011;39345;43.964;25.340;2022-09-17T06:04:16;8.30;;;3.10;;
43835;SDS011;39345;43.964;25.340;2022-09-17T06:06:43;11.98;;;4.60;;
43835;SDS011;39345;43.964;25.340;2022-09-17T06:09:13;15.02;;;4.97;;
43835;SDS011;39345;43.964;25.340;2022-09-17T06:11:41;13.20;;;5.68;;
43835;SDS011;39345;43.964;25.340;2022-09-17T06:14:08;10.85;;;6.25;;
43835;SDS011;39345;43.964;25.340;2022-09-17T06:16:36;17.08;;;7.25;;
43835;SDS011;39345;43.964;25.340;2022-09-17T06:19:03;17.38;;;8.43;;
43835;SDS011;39345;43.964;25.340;2022-09-17T06:21:31;15.43;;;6.72;;
43835;SDS011;39345;43.964;25.340;2022-09-17T06:23:59;13.95;;;7.03;;
43835;SDS011;39345;43.964;25.340;2022-09-17T06:26:31;11.30;;;6.60;;
43835;SDS011;39345;43.964;25.340;2022-09-17T06:28:58;18.42;;;7.57;;
43835;SDS011;39345;43.964;25.340;2022-09-17T06:31:26;16.73;;;8.63;;
43835;SDS011;39345;43.964;25.340;2022-09-17T06:33:54;19.98;;;9.63;;
43835;SDS011;39345;43.964;25.340;2022-09-17T06:36:24;15.63;;;8.13;;
43835;SDS011;39345;43.964;25.340;2022-09-17T06:38:51;16.27;;;8.75;;
43835;SDS011;39345;43.964;25.340;2022-09-17T06:41:18;13.98;;;7.03;;
43835;SDS011;39345;43.964;25.340;2022-09-17T06:43:46;12.98;;;6.28;;
43835;SDS011;39345;43.964;25.340;2022-09-17T06:46:14;13.40;;;5.38;;
43835;SDS011;39345;43.964;25.340;2022-09-17T06:48:41;15.75;;;5.10;;
43835;SDS011;39345;43.964;25.340;2022-09-17T06:51:09;9.50;;;4.35;;
43835;SDS011;39345;43.964;25.340;2022-09-17T06:53:37;12.00;;;4.63;;
43835;SDS011;39345;43.964;25.340;2022-09-17T06:56:06;17.60;;;7.90;;
43835;SDS011;39345;43.964;25.340;2022-09-17T06:58:34;14.68;;;6.35;;
43835;SDS011;39345;43.964;25.340;2022-09-17T07:01:09;13.98;;;4.78;;
43835;SDS011;39345;43.964;25.340;2022-09-17T07:03:38;9.75;;;4.47;;
43835;SDS011;39345;43.964;25.340;2022-09-17T07:06:08;11.68;;;5.20;;
43835;SDS011;39345;43.964;25.340;2022-09-17T07:08:36;14.25;;;6.38;;
43835;SDS011;39345;43.964;25.340;2022-09-17T07:11:04;12.95;;;4.97;;
43835;SDS011;39345;43.964;25.340;2022-09-17T07:13:33;9.43;;;4.50;;
43835;SDS011;39345;43.964;25.340;2022-09-17T07:16:01;14.55;;;5.43;;
43835;SDS011;39345;43.964;25.340;2022-09-17T07:18:30;14.98;;;7.25;;
43835;SDS011;39345;43.964;25.340;2022-09-17T07:20:59;9.73;;;4.00;;
43835;SDS011;39345;43.964;25.340;2022-09-17T07:23:30;15.20;;;7.97;;
43835;SDS011;39345;43.964;25.340;2022-09-17T07:25:59;12.27;;;7.82;;
43835;SDS011;39345;43.964;25.340;2022-09-17T07:28:27;11.57;;;5.65;;
43835;SDS011;39345;43.964;25.340;2022-09-17T07:30:55;17.15;;;8.50;;
43835;SDS011;39345;43.964;25.340;2022-09-17T07:33:23;18.23;;;8.73;;
43835;SDS011;39345;43.964;25.340;2022-09-17T07:35:58;15.23;;;7.97;;
43835;SDS011;39345;43.964;25.340;2022-09-17T07:38:26;16.15;;;8.55;;
43835;SDS011;39345;43.964;25.340;2022-09-17T07:40:58;17.55;;;9.07;;
43835;SDS011;39345;43.964;25.340;2022-09-17T07:43:27;16.70;;;8.70;;
43835;SDS011;39345;43.964;25.340;2022-09-17T07:45:55;19.40;;;10.25;;
43835;SDS011;39345;43.964;25.340;2022-09-17T07:48:24;28.27;;;14.00;;
43835;SDS011;39345;43.964;25.340;2022-09-17T07:50:51;25.15;;;14.05;;
43835;SDS011;39345;43.964;25.340;2022-09-17T07:53:19;24.25;;;14.05;;
43835;SDS011;39345;43.964;25.340;2022-09-17T07:55:58;24.48;;;15.30;;
43835;SDS011;39345;43.964;25.340;2022-09-17T07:58:29;29.35;;;14.05;;
43835;SDS011;39345;43.964;25.340;2022-09-17T08:03:28;28.55;;;16.30;;
43835;SDS011;39345;43.964;25.340;2022-09-17T08:06:03;30.50;;;15.35;;
43835;SDS011;39345;43.964;25.340;2022-09-17T08:10:59;23.38;;;13.27;;
43835;SDS011;39345;43.964;25.340;2022-09-17T08:13:27;22.42;;;11.55;;
43835;SDS011;39345;43.964;25.340;2022-09-17T08:16:01;22.52;;;10.68;;
43835;SDS011;39345;43.964;25.340;2022-09-17T08:18:30;16.60;;;9.70;;
43835;SDS011;39345;43.964;25.340;2022-09-17T08:20:58;20.77;;;9.07;;
43835;SDS011;39345;43.964;25.340;2022-09-17T08:23:26;14.88;;;8.27;;
43835;SDS011;39345;43.964;25.340;2022-09-17T08:25:55;14.32;;;8.25;;
43835;SDS011;39345;43.964;25.340;2022-09-17T08:28:22;17.17;;;7.80;;
43835;SDS011;39345;43.964;25.340;2022-09-17T08:30:51;26.92;;;16.40;;
43835;SDS011;39345;43.964;25.340;2022-09-17T08:33:19;42.85;;;30.38;;
43835;SDS011;39345;43.964;25.340;2022-09-17T08:35:50;18.42;;;9.40;;
43835;SDS011;39345;43.964;25.340;2022-09-17T08:38:18;8.10;;;5.13;;
43835;SDS011;39345;43.964;25.340;2022-09-17T08:43:26;12.10;;;5.53;;
43835;SDS011;39345;43.964;25.340;2022-09-17T08:45:54;11.82;;;6.80;;
43835;SDS011;39345;43.964;25.340;2022-09-17T08:48:24;23.67;;;5.93;;
43835;SDS011;39345;43.964;25.340;2022-09-17T08:50:54;13.00;;;4.78;;
43835;SDS011;39345;43.964;25.340;2022-09-17T08:53:38;10.85;;;4.82;;
43835;SDS011;39345;43.964;25.340;2022-09-17T08:56:12;16.92;;;8.55;;
43835;SDS011;39345;43.964;25.340;2022-09-17T09:06:33;10.07;;;4.50;;
43835;SDS011;39345;43.964;25.340;2022-09-17T09:09:06;13.25;;;4.90;;
43835;SDS011;39345;43.964;25.340;2022-09-17T09:11:37;8.55;;;3.60;;
43835;SDS011;39345;43.964;25.340;2022-09-17T09:14:08;15.52;;;4.57;;
43835;SDS011;39345;43.964;25.340;2022-09-17T09:16:40;10.25;;;4.70;;
43835;SDS011;39345;43.964;25.340;2022-09-17T09:19:17;12.85;;;5.78;;
43835;SDS011;39345;43.964;25.340;2022-09-17T09:27:28;14.27;;;6.30;;
43835;SDS011;39345;43.964;25.340;2022-09-17T09:30:07;15.90;;;6.82;;
43835;SDS011;39345;43.964;25.340;2022-09-17T09:32:49;7.40;;;3.67;;
43835;SDS011;39345;43.964;25.340;2022-09-17T09:37:55;9.93;;;4.57;;
43835;SDS011;39345;43.964;25.340;2022-09-17T09:42:59;10.37;;;3.83;;
43835;SDS011;39345;43.964;25.340;2022-09-17T09:46:17;9.52;;;3.65;;
43835;SDS011;39345;43.964;25.340;2022-09-17T09:48:22;11.98;;;4.35;;
43835;SDS011;39345;43.964;25.340;2022-09-17T09:56:04;9.30;;;4.72;;
43835;SDS011;39345;43.964;25.340;2022-09-17T09:58:36;11.80;;;4.60;;
43835;SDS011;39345;43.964;25.340;2022-09-17T10:01:12;10.90;;;5.35;;
43835;SDS011;39345;43.964;25.340;2022-09-17T10:03:41;12.25;;;5.78;;
43835;SDS011;39345;43.964;25.340;2022-09-17T10:06:11;10.85;;;4.72;;
43835;SDS011;39345;43.964;25.340;2022-09-17T10:08:47;10.35;;;5.25;;
43835;SDS011;39345;43.964;25.340;2022-09-17T10:11:29;6.82;;;3.95;;
43835;SDS011;39345;43.964;25.340;2022-09-17T10:16:45;9.23;;;4.32;;
43835;SDS011;39345;43.964;25.340;2022-09-17T10:19:16;8.18;;;3.40;;
43835;SDS011;39345;43.964;25.340;2022-09-17T10:21:45;7.93;;;3.95;;
43835;SDS011;39345;43.964;25.340;2022-09-17T10:24:28;9.52;;;3.88;;
43835;SDS011;39345;43.964;25.340;2022-09-17T10:27:00;13.23;;;4.20;;
43835;SDS011;39345;43.964;25.340;2022-09-17T10:29:28;10.60;;;5.90;;
43835;SDS011;39345;43.964;25.340;2022-09-17T10:31:56;11.85;;;5.78;;
43835;SDS011;39345;43.964;25.340;2022-09-17T10:36:52;11.80;;;4.30;;
43835;SDS011;39345;43.964;25.340;2022-09-17T10:44:24;7.88;;;3.78;;
43835;SDS011;39345;43.964;25.340;2022-09-17T10:46:51;7.80;;;3.53;;
43835;SDS011;39345;43.964;25.340;2022-09-17T10:51:50;10.85;;;5.47;;
43835;SDS011;39345;43.964;25.340;2022-09-17T10:54:33;9.18;;;3.38;;
43835;SDS011;39345;43.964;25.340;2022-09-17T10:57:06;11.55;;;5.32;;
43835;SDS011;39345;43.964;25.340;2022-09-17T11:04:53;9.70;;;5.07;;
43835;SDS011;39345;43.964;25.340;2022-09-17T11:07:41;10.43;;;4.53;;
43835;SDS011;39345;43.964;25.340;2022-09-17T11:10:22;11.75;;;4.82;;
43835;SDS011;39345;43.964;25.340;2022-09-17T11:12:56;8.20;;;3.25;;
43835;SDS011;39345;43.964;25.340;2022-09-17T11:15:29;10.52;;;5.38;;
43835;SDS011;39345;43.964;25.340;2022-09-17T11:39:14;24.00;;;17.25;;
43835;SDS011;39345;43.964;25.340;2022-09-17T11:41:45;10.77;;;5.35;;
43835;SDS011;39345;43.964;25.340;2022-09-17T11:44:19;6.85;;;3.83;;
43835;SDS011;39345;43.964;25.340;2022-09-17T11:46:50;9.23;;;4.68;;
43835;SDS011;39345;43.964;25.340;2022-09-17T11:49:23;8.68;;;4.28;;
43835;SDS011;39345;43.964;25.340;2022-09-17T11:51:54;10.88;;;4.75;;
43835;SDS011;39345;43.964;25.340;2022-09-17T11:54:28;9.40;;;5.15;;
43835;SDS011;39345;43.964;25.340;2022-09-17T11:56:58;12.32;;;5.57;;
43835;SDS011;39345;43.964;25.340;2022-09-17T12:02:22;10.48;;;4.68;;
43835;SDS011;39345;43.964;25.340;2022-09-17T12:04:56;10.35;;;5.40;;
43835;SDS011;39345;43.964;25.340;2022-09-17T12:12:55;9.65;;;5.25;;
43835;SDS011;39345;43.964;25.340;2022-09-17T12:15:24;10.13;;;4.65;;
43835;SDS011;39345;43.964;25.340;2022-09-17T12:18:00;10.73;;;4.07;;
43835;SDS011;39345;43.964;25.340;2022-09-17T12:20:52;10.52;;;5.10;;
43835;SDS011;39345;43.964;25.340;2022-09-17T12:23:31;11.25;;;4.68;;
43835;SDS011;39345;43.964;25.340;2022-09-17T12:26:04;9.02;;;5.72;;
43835;SDS011;39345;43.964;25.340;2022-09-17T12:31:04;7.03;;;4.13;;
43835;SDS011;39345;43.964;25.340;2022-09-17T12:33:38;7.80;;;4.00;;
43835;SDS011;39345;43.964;25.340;2022-09-17T12:36:10;9.57;;;4.63;;
43835;SDS011;39345;43.964;25.340;2022-09-17T12:39:03;7.60;;;4.15;;
43835;SDS011;39345;43.964;25.340;2022-09-17T12:44:17;10.38;;;4.30;;
43835;SDS011;39345;43.964;25.340;2022-09-17T12:54:45;11.30;;;4.13;;
43835;SDS011;39345;43.964;25.340;2022-09-17T12:57:20;8.75;;;3.55;;
43835;SDS011;39345;43.964;25.340;2022-09-17T13:00:26;8.65;;;3.80;;
43835;SDS011;39345;43.964;25.340;2022-09-17T13:02:52;9.20;;;4.20;;
43835;SDS011;39345;43.964;25.340;2022-09-17T13:10:38;14.43;;;6.78;;
43835;SDS011;39345;43.964;25.340;2022-09-17T13:18:25;24.70;;;16.52;;
43835;SDS011;39345;43.964;25.340;2022-09-17T13:21:03;12.82;;;8.20;;
43835;SDS011;39345;43.964;25.340;2022-09-17T13:26:01;10.82;;;6.65;;
43835;SDS011;39345;43.964;25.340;2022-09-17T13:31:12;8.65;;;3.28;;
43835;SDS011;39345;43.964;25.340;2022-09-17T13:33:56;16.75;;;11.13;;
43835;SDS011;39345;43.964;25.340;2022-09-17T13:39:05;8.35;;;3.33;;
43835;SDS011;39345;43.964;25.340;2022-09-17T13:41:37;17.60;;;4.45;;
43835;SDS011;39345;43.964;25.340;2022-09-17T13:44:05;18.58;;;3.97;;
43835;SDS011;39345;43.964;25.340;2022-09-17T13:46:34;10.32;;;5.22;;
43835;SDS011;39345;43.964;25.340;2022-09-17T13:49:10;8.98;;;4.03;;
43835;SDS011;39345;43.964;25.340;2022-09-17T13:54:07;8.18;;;3.38;;
43835;SDS011;39345;43.964;25.340;2022-09-17T13:56:36;9.55;;;4.00;;
43835;SDS011;39345;43.964;25.340;2022-09-17T13:59:08;21.65;;;7.68;;
43835;SDS011;39345;43.964;25.340;2022-09-17T14:09:50;8.85;;;4.13;;
43835;SDS011;39345;43.964;25.340;2022-09-17T14:17:59;6.13;;;3.22;;
43835;SDS011;39345;43.964;25.340;2022-09-17T14:20:31;9.13;;;3.67;;
43835;SDS011;39345;43.964;25.340;2022-09-17T14:23:00;6.13;;;3.08;;
43835;SDS011;39345;43.964;25.340;2022-09-17T14:25:32;11.18;;;3.10;;
43835;SDS011;39345;43.964;25.340;2022-09-17T14:28:07;6.43;;;2.60;;
43835;SDS011;39345;43.964;25.340;2022-09-17T14:30:41;7.80;;;3.70;;
43835;SDS011;39345;43.964;25.340;2022-09-17T14:33:17;8.13;;;3.42;;
43835;SDS011;39345;43.964;25.340;2022-09-17T14:35:46;11.88;;;3.33;;
43835;SDS011;39345;43.964;25.340;2022-09-17T14:40:58;10.50;;;3.58;;
43835;SDS011;39345;43.964;25.340;2022-09-17T14:45:57;5.13;;;2.45;;
43835;SDS011;39345;43.964;25.340;2022-09-17T14:48:26;6.43;;;2.78;;
43835;SDS011;39345;43.964;25.340;2022-09-17T14:53:40;6.45;;;3.40;;
43835;SDS011;39345;43.964;25.340;2022-09-17T14:56:08;7.63;;;3.03;;
43835;SDS011;39345;43.964;25.340;2022-09-17T14:58:39;8.45;;;3.50;;
43835;SDS011;39345;43.964;25.340;2022-09-17T15:01:24;9.40;;;4.07;;
43835;SDS011;39345;43.964;25.340;2022-09-17T15:06:39;11.90;;;5.75;;
43835;SDS011;39345;43.964;25.340;2022-09-17T15:09:17;16.20;;;7.00;;
43835;SDS011;39345;43.964;25.340;2022-09-17T15:11:45;22.35;;;13.98;;
43835;SDS011;39345;43.964;25.340;2022-09-17T15:14:17;17.08;;;7.10;;
43835;SDS011;39345;43.964;25.340;2022-09-17T15:16:47;9.23;;;4.70;;
43835;SDS011;39345;43.964;25.340;2022-09-17T15:19:18;17.08;;;7.53;;
43835;SDS011;39345;43.964;25.340;2022-09-17T15:21:49;9.60;;;4.55;;
43835;SDS011;39345;43.964;25.340;2022-09-17T15:27:18;8.18;;;4.25;;
43835;SDS011;39345;43.964;25.340;2022-09-17T15:29:50;6.95;;;3.42;;
43835;SDS011;39345;43.964;25.340;2022-09-17T15:32:19;22.17;;;10.85;;
43835;SDS011;39345;43.964;25.340;2022-09-17T15:37:33;11.07;;;5.38;;
43835;SDS011;39345;43.964;25.340;2022-09-17T15:40:22;11.80;;;6.78;;
43835;SDS011;39345;43.964;25.340;2022-09-17T15:42:51;11.15;;;6.72;;
43835;SDS011;39345;43.964;25.340;2022-09-17T15:47:56;10.85;;;6.57;;
43835;SDS011;39345;43.964;25.340;2022-09-17T15:50:33;7.45;;;4.88;;
43835;SDS011;39345;43.964;25.340;2022-09-17T15:55:36;10.05;;;4.28;;
43835;SDS011;39345;43.964;25.340;2022-09-17T16:08:48;8.40;;;3.40;;
43835;SDS011;39345;43.964;25.340;2022-09-17T16:11:17;10.32;;;3.05;;
43835;SDS011;39345;43.964;25.340;2022-09-17T16:13:45;15.50;;;9.52;;
43835;SDS011;39345;43.964;25.340;2022-09-17T16:16:17;7.38;;;4.85;;
43835;SDS011;39345;43.964;25.340;2022-09-17T16:18:46;7.25;;;3.63;;
43835;SDS011;39345;43.964;25.340;2022-09-17T16:21:14;11.27;;;3.30;;
43835;SDS011;39345;43.964;25.340;2022-09-17T16:23:42;10.60;;;5.10;;
43835;SDS011;39345;43.964;25.340;2022-09-17T16:29:13;13.52;;;7.75;;
43835;SDS011;39345;43.964;25.340;2022-09-17T16:31:41;9.10;;;3.97;;
43835;SDS011;39345;43.964;25.340;2022-09-17T16:34:10;5.60;;;3.03;;
43835;SDS011;39345;43.964;25.340;2022-09-17T16:36:37;9.85;;;5.78;;
43835;SDS011;39345;43.964;25.340;2022-09-17T16:39:05;10.25;;;6.03;;
43835;SDS011;39345;43.964;25.340;2022-09-17T16:41:33;6.75;;;3.55;;
43835;SDS011;39345;43.964;25.340;2022-09-17T16:44:00;10.93;;;3.80;;
43835;SDS011;39345;43.964;25.340;2022-09-17T16:46:28;6.20;;;3.70;;
43835;SDS011;39345;43.964;25.340;2022-09-17T16:48:56;18.17;;;11.10;;
43835;SDS011;39345;43.964;25.340;2022-09-17T16:51:23;8.80;;;4.35;;
43835;SDS011;39345;43.964;25.340;2022-09-17T16:53:51;8.43;;;4.10;;
43835;SDS011;39345;43.964;25.340;2022-09-17T16:56:19;8.90;;;4.32;;
43835;SDS011;39345;43.964;25.340;2022-09-17T16:58:46;11.98;;;6.13;;
43835;SDS011;39345;43.964;25.340;2022-09-17T17:01:14;6.47;;;3.88;;
43835;SDS011;39345;43.964;25.340;2022-09-17T17:03:42;20.10;;;15.15;;
43835;SDS011;39345;43.964;25.340;2022-09-17T17:06:16;14.00;;;7.60;;
43835;SDS011;39345;43.964;25.340;2022-09-17T17:08:44;7.97;;;4.40;;
43835;SDS011;39345;43.964;25.340;2022-09-17T17:11:12;8.68;;;4.90;;
43835;SDS011;39345;43.964;25.340;2022-09-17T17:13:42;8.88;;;5.18;;
43835;SDS011;39345;43.964;25.340;2022-09-17T17:16:11;13.25;;;6.35;;
43835;SDS011;39345;43.964;25.340;2022-09-17T17:18:42;13.70;;;6.40;;
43835;SDS011;39345;43.964;25.340;2022-09-17T17:21:10;9.02;;;4.32;;
43835;SDS011;39345;43.964;25.340;2022-09-17T17:23:39;8.18;;;4.10;;
43835;SDS011;39345;43.964;25.340;2022-09-17T17:26:09;7.30;;;3.90;;
43835;SDS011;39345;43.964;25.340;2022-09-17T17:28:36;10.27;;;4.10;;
43835;SDS011;39345;43.964;25.340;2022-09-17T17:31:04;8.68;;;4.13;;
43835;SDS011;39345;43.964;25.340;2022-09-17T17:33:32;9.77;;;4.57;;
43835;SDS011;39345;43.964;25.340;2022-09-17T17:36:01;10.30;;;5.38;;
43835;SDS011;39345;43.964;25.340;2022-09-17T17:38:34;12.10;;;4.80;;
43835;SDS011;39345;43.964;25.340;2022-09-17T17:41:08;9.15;;;4.65;;
43835;SDS011;39345;43.964;25.340;2022-09-17T17:46:04;9.77;;;4.95;;
43835;SDS011;39345;43.964;25.340;2022-09-17T17:48:33;8.82;;;4.68;;
43835;SDS011;39345;43.964;25.340;2022-09-17T17:51:01;8.93;;;4.47;;
43835;SDS011;39345;43.964;25.340;2022-09-17T17:53:29;12.48;;;5.32;;
43835;SDS011;39345;43.964;25.340;2022-09-17T17:55:57;11.18;;;5.55;;
43835;SDS011;39345;43.964;25.340;2022-09-17T17:58:25;10.98;;;6.43;;
43835;SDS011;39345;43.964;25.340;2022-09-17T18:00:53;12.10;;;6.90;;
43835;SDS011;39345;43.964;25.340;2022-09-17T18:03:20;8.32;;;4.60;;
43835;SDS011;39345;43.964;25.340;2022-09-17T18:05:52;11.38;;;6.10;;
43835;SDS011;39345;43.964;25.340;2022-09-17T18:08:24;9.98;;;5.93;;
43835;SDS011;39345;43.964;25.340;2022-09-17T18:10:53;15.27;;;6.85;;